EETN Airport Information

Runway Information
Runway 08 Length 10072 ft width 148 ft
Elevation 129 ft Threshold 820 ft Heading 90
Runway 26 Length 10072 ft Width 148 ft
Elevation 131 ft Threshold 0 ft Heading 270
Airport Frequencies
Type APP Name APP Frequency 127.9 MHZ
Type ATIS Name ATIS Frequency 124.875 MHZ
Type TWR Name TWR Frequency 120.6 MHZ
Airport Navaids
Type NDB Name Tallinn Frequency 329 KHZ
Type NDB Name Tallinn Frequency 386 KHZ
Type VOR-DME Name Tallinn Frequency 112200 KHZ
Airport Weather Information & NOTAM
ADDS - METARS form results

(0243 UTC 19 September 2021)
Data provider http://aviationweather.gov/metar/data/
 
METAR text: EETN 190220Z 09011KT 9999 OVC038 06/01 Q1024
Conditions at: EETN (TALLINN , EE) observed 0220 UTC 19 September 2021
Temperature: 6.0°C (43°F)
Dewpoint: 1.0°C (34°F) [RH = 70%]
Pressure (altimeter): 30.24 inches Hg (1024.0 mb)
Winds: from the E (90 degrees) at 13 MPH (11 knots; 5.7 m/s)
Visibility: 6 or more miles (10+ km)
Ceiling: 3800 feet AGL
Clouds: overcast cloud deck at 3800 feet AGL
Weather: no significant weather observed at this time

METAR text: EETN 190150Z 09012KT 9999 BKN038 07/01 Q1024
Conditions at: EETN (TALLINN , EE) observed 0150 UTC 19 September 2021
Temperature: 7.0°C (45°F)
Dewpoint: 1.0°C (34°F) [RH = 66%]
Pressure (altimeter): 30.24 inches Hg (1024.0 mb)
Winds: from the E (90 degrees) at 14 MPH (12 knots; 6.2 m/s)
Visibility: 6 or more miles (10+ km)
Ceiling: 3800 feet AGL
Clouds: broken clouds at 3800 feet AGL
Weather: no significant weather observed at this time

Forecast for: EETN (TALLINN , EE)
Text: TAF EETN 182330Z 1900/1924 09012KT 9999 BKN035
Forecast period: 0000 UTC 19 September 2021 to 0000 UTC 20 September 2021
Forecast type: FROM: standard forecast or significant change
Winds: from the E (90 degrees) at 14 MPH (12 knots; 6.2 m/s)
Visibility: 6 or more miles (10+ km)
Ceiling: 3500 feet AGL
Clouds: broken clouds at 3500 feet AGL
Weather: no significant weather forecast for this period
Text: TEMPO 1911/1916 08018G30KT
Forecast period: 1100 to 1600 UTC 19 September 2021
Forecast type: TEMPORARY: The following changes expected for less than half the time period
Winds: from the E (80 degrees) at 21 MPH (18 knots; 9.3 m/s)
gusting to 34 MPH (30 knots; 15.4 m/s)
Visibility: missing
Ceiling: unknown
Clouds: missing
Weather: no significant weather forecast for this period